createdAt,value
2023-02-21T00:01:45.376Z,94671.19
2023-02-21T00:04:30.598Z,94668.25
2023-02-21T00:07:15.916Z,94665.56
2023-02-21T00:10:01.259Z,94672.69
2023-02-21T00:12:46.379Z,94663.91
2023-02-21T00:15:31.578Z,94659.34
2023-02-21T00:18:16.810Z,94669.44
2023-02-21T00:21:02.208Z,94658.78
2023-02-21T00:23:47.296Z,94657.19
2023-02-21T00:26:37.108Z,94657.28
2023-02-21T00:29:22.339Z,94650.78
2023-02-21T00:32:08.127Z,94657.00
2023-02-21T00:34:54.703Z,94655.00
2023-02-21T00:37:40.140Z,94654.22
2023-02-21T00:40:25.937Z,94650.47
2023-02-21T00:43:11.220Z,94644.34
2023-02-21T00:45:56.561Z,94637.44
2023-02-21T00:48:42.343Z,94640.69
2023-02-21T00:51:28.315Z,94642.56
2023-02-21T00:54:13.513Z,94635.84
2023-02-21T00:56:58.735Z,94636.13
2023-02-21T00:59:44.491Z,94635.66
2023-02-21T01:02:30.369Z,94633.31
2023-02-21T01:05:15.964Z,94621.84
2023-02-21T01:08:01.163Z,94621.06
2023-02-21T01:10:46.418Z,94621.34
2023-02-21T01:13:31.637Z,94617.59
2023-02-21T01:16:16.744Z,94615.72
2023-02-21T01:19:02.062Z,94618.56
2023-02-21T01:21:47.288Z,94623.09
2023-02-21T01:24:34.526Z,94619.47
2023-02-21T01:27:20.192Z,94612.56
2023-02-21T01:30:07.723Z,94615.31
2023-02-21T01:32:53.115Z,94602.66
2023-02-21T01:35:38.532Z,94607.41
2023-02-21T01:38:23.923Z,94605.34
2023-02-21T01:41:09.147Z,94600.00
2023-02-21T01:43:54.444Z,94602.66
2023-02-21T01:46:39.835Z,94602.47
2023-02-21T01:49:34.260Z,94603.88
2023-02-21T01:52:21.803Z,94601.66
2023-02-21T01:55:10.924Z,94601.72
2023-02-21T01:57:58.606Z,94597.94
2023-02-21T02:00:44.866Z,94596.94
2023-02-21T02:03:33.734Z,94603.13
2023-02-21T02:06:24.240Z,94589.31
2023-02-21T02:09:09.490Z,94582.63
2023-02-21T02:12:24.774Z,94587.47
2023-02-21T02:15:07.304Z,94583.06
2023-02-21T02:18:01.070Z,94575.59
2023-02-21T02:20:39.952Z,94585.25
2023-02-21T02:23:25.072Z,94581.75
2023-02-21T02:26:00.348Z,94589.91
2023-02-21T02:29:15.425Z,94590.06
2023-02-21T02:32:13.612Z,94580.69
2023-02-21T02:35:01.360Z,94576.88
2023-02-21T02:37:57.067Z,94576.88
2023-02-21T02:40:46.843Z,94576.88
2023-02-21T02:43:28.127Z,94572.94
2023-02-21T02:45:59.725Z,94563.19
2023-02-21T02:48:36.147Z,94565.63
2023-02-21T02:51:07.971Z,94584.53
2023-02-21T02:53:36.093Z,94576.56
2023-02-21T02:56:07.410Z,94572.75
2023-02-21T02:58:42.415Z,94577.28
2023-02-21T03:01:46.569Z,94573.03
2023-02-21T03:04:16.343Z,94575.69
2023-02-21T03:06:52.130Z,94568.41
2023-02-21T03:09:29.407Z,94568.09
2023-02-21T03:12:18.737Z,94568.22
2023-02-21T03:14:55.679Z,94566.41
2023-02-21T03:17:27.219Z,94568.28
2023-02-21T03:19:56.930Z,94579.44
2023-02-21T03:22:27.426Z,94570.44
2023-02-21T03:24:55.564Z,94571.81
2023-02-21T03:27:23.583Z,94579.00
2023-02-21T03:30:02.458Z,94574.56
2023-02-21T03:32:49.186Z,94577.28
2023-02-21T03:35:16.298Z,94576.81
2023-02-21T03:37:46.877Z,94574.34
2023-02-21T03:40:33.782Z,94577.59
2023-02-21T03:43:07.167Z,94573.25
2023-02-21T03:45:40.646Z,94571.09
2023-02-21T03:48:13.892Z,94574.06
2023-02-21T03:50:42.993Z,94571.88
2023-02-21T03:53:10.633Z,94561.97
2023-02-21T03:55:39.300Z,94556.94
2023-02-21T03:58:11.902Z,94560.59
2023-02-21T04:00:38.699Z,94559.22
2023-02-21T04:03:05.843Z,94567.03
2023-02-21T04:05:38.948Z,94563.56
2023-02-21T04:08:06.493Z,94553.31
2023-02-21T04:10:37.877Z,94558.38
2023-02-21T04:13:07.418Z,94570.28
2023-02-21T04:15:39.520Z,94565.78
2023-02-21T04:18:06.338Z,94563.28
2023-02-21T04:20:33.250Z,94569.63
2023-02-21T04:23:03.750Z,94564.25
2023-02-21T04:25:31.826Z,94557.78
2023-02-21T04:28:03.737Z,94576.19
2023-02-21T04:30:31.089Z,94565.91
2023-02-21T04:32:58.120Z,94566.47
2023-02-21T04:35:24.915Z,94570.78
2023-02-21T04:37:53.476Z,94569.97
2023-02-21T04:40:20.100Z,94571.66
2023-02-21T04:42:46.778Z,94572.78
2023-02-21T04:45:13.583Z,94572.00
2023-02-21T04:47:40.420Z,94570.41
2023-02-21T04:50:07.472Z,94571.81
2023-02-21T04:52:34.112Z,94562.06
2023-02-21T04:55:00.849Z,94579.00
2023-02-21T04:57:27.527Z,94568.19
2023-02-21T04:59:59.806Z,94581.31
2023-02-21T05:02:27.480Z,94576.06
2023-02-21T05:04:54.270Z,94572.19
2023-02-21T05:07:20.933Z,94560.84
2023-02-21T05:09:47.608Z,94556.09
2023-02-21T05:12:14.228Z,94558.22
2023-02-21T05:14:42.019Z,94551.06
2023-02-21T05:17:09.040Z,94555.56
2023-02-21T05:19:35.827Z,94550.84
2023-02-21T05:22:03.198Z,94545.00
2023-02-21T05:24:31.182Z,94550.53
2023-02-21T05:26:59.004Z,94544.66
2023-02-21T05:29:26.397Z,94549.69
2023-02-21T05:31:53.096Z,94551.63
2023-02-21T05:34:19.832Z,94540.78
2023-02-21T05:36:46.723Z,94542.44
2023-02-21T05:39:13.465Z,94527.63
2023-02-21T05:41:46.922Z,94540.50
2023-02-21T05:44:13.616Z,94534.97
2023-02-21T05:46:40.269Z,94544.31
2023-02-21T05:49:07.110Z,94543.50
2023-02-21T05:51:38.839Z,94544.50
2023-02-21T05:54:08.139Z,94549.47
2023-02-21T05:56:39.839Z,94548.13
2023-02-21T05:59:06.631Z,94533.88
2023-02-21T06:01:33.232Z,94549.25
2023-02-21T06:03:59.950Z,94542.56
2023-02-21T06:06:27.133Z,94543.09
2023-02-21T06:08:53.786Z,94531.91
2023-02-21T06:11:29.110Z,94550.16
2023-02-21T06:13:57.695Z,94541.91
2023-02-21T06:16:24.984Z,94538.06
2023-02-21T06:18:53.500Z,94539.31
2023-02-21T06:21:20.365Z,94533.72
2023-02-21T06:23:47.281Z,94537.81
2023-02-21T06:26:15.461Z,94545.88
2023-02-21T06:28:42.555Z,94528.84
2023-02-21T06:31:09.532Z,94536.88
2023-02-21T06:33:36.679Z,94533.34
2023-02-21T06:36:08.213Z,94538.50
2023-02-21T06:38:35.172Z,94540.00
2023-02-21T06:41:09.126Z,94519.38
2023-02-21T06:43:39.402Z,94543.81
2023-02-21T06:46:06.095Z,94535.81
2023-02-21T06:48:32.818Z,94547.00
2023-02-21T06:51:00.584Z,94548.91
2023-02-21T06:53:27.292Z,94545.72
2023-02-21T06:55:53.970Z,94540.91
2023-02-21T06:58:20.629Z,94543.91
2023-02-21T07:00:47.262Z,94554.47
2023-02-21T07:03:13.913Z,94540.41
2023-02-21T07:05:40.559Z,94562.19
2023-02-21T07:08:07.217Z,94558.91
2023-02-21T07:10:33.851Z,94566.75
2023-02-21T07:13:00.604Z,94559.09
2023-02-21T07:15:27.450Z,94558.91
2023-02-21T07:17:54.132Z,94569.19
2023-02-21T07:20:20.743Z,94561.22
2023-02-21T07:22:47.405Z,94553.63
2023-02-21T07:25:20.159Z,94562.09
2023-02-21T07:27:48.247Z,94561.03
2023-02-21T07:30:15.469Z,94561.66
2023-02-21T07:32:42.293Z,94573.69
2023-02-21T07:35:09.264Z,94560.00
2023-02-21T07:37:35.918Z,94563.53
2023-02-21T07:40:02.709Z,94560.75
2023-02-21T07:42:29.328Z,94564.66
2023-02-21T07:44:57.716Z,94556.97
2023-02-21T07:47:25.840Z,94567.16
2023-02-21T07:49:54.172Z,94562.72
2023-02-21T07:52:22.555Z,94558.97
2023-02-21T07:54:49.930Z,94561.81
2023-02-21T07:57:17.589Z,94571.38
2023-02-21T07:59:44.961Z,94568.63
2023-02-21T08:02:12.682Z,94575.03
2023-02-21T08:04:40.236Z,94576.06
2023-02-21T08:07:08.056Z,94576.72
2023-02-21T08:09:35.891Z,94581.50
2023-02-21T08:12:03.168Z,94586.03
2023-02-21T08:14:29.953Z,94574.16
2023-02-21T08:16:56.596Z,94582.09
2023-02-21T08:19:23.376Z,94567.19
2023-02-21T08:21:51.035Z,94578.88
2023-02-21T08:24:19.047Z,94576.19
2023-02-21T08:26:46.261Z,94577.72
2023-02-21T08:29:14.197Z,94573.88
2023-02-21T08:31:42.379Z,94566.97
2023-02-21T08:34:09.392Z,94569.06
2023-02-21T08:36:38.838Z,94565.97
2023-02-21T08:39:07.088Z,94567.66
2023-02-21T08:41:42.257Z,94570.63
2023-02-21T08:44:09.973Z,94562.56
2023-02-21T08:46:36.823Z,94561.34
2023-02-21T08:49:04.472Z,94562.50
2023-02-21T08:51:32.547Z,94552.50
2023-02-21T08:53:59.712Z,94561.63
2023-02-21T08:56:27.945Z,94560.22
2023-02-21T08:58:55.125Z,94566.59
2023-02-21T09:01:23.537Z,94562.13
2023-02-21T09:03:51.119Z,94570.03
2023-02-21T09:06:18.410Z,94570.94
2023-02-21T09:08:45.111Z,94565.66
2023-02-21T09:11:11.807Z,94581.56
2023-02-21T09:13:38.456Z,94582.00
2023-02-21T09:16:05.545Z,94584.06
2023-02-21T09:18:32.979Z,94583.56
2023-02-21T09:21:00.032Z,94589.66
2023-02-21T09:23:29.856Z,94594.03
2023-02-21T09:25:57.030Z,94588.88
2023-02-21T09:28:24.127Z,94589.69
2023-02-21T09:30:50.901Z,94593.44
2023-02-21T09:33:18.057Z,94588.31
2023-02-21T09:35:44.736Z,94593.47
2023-02-21T09:38:11.478Z,94593.03
2023-02-21T09:41:01.073Z,94586.81
2023-02-21T09:43:38.016Z,94592.06
2023-02-21T09:46:29.936Z,94587.88
2023-02-21T09:48:56.737Z,94583.56
2023-02-21T09:51:25.112Z,94579.00
2023-02-21T09:53:56.113Z,94578.28
2023-02-21T09:56:29.494Z,94578.38
2023-02-21T09:58:56.969Z,94580.63
2023-02-21T10:01:42.538Z,94577.28
2023-02-21T10:04:39.469Z,94587.25
2023-02-21T10:07:18.798Z,94582.22
2023-02-21T10:10:03.751Z,94581.59
2023-02-21T10:12:45.044Z,94582.50
2023-02-21T10:15:20.815Z,94587.19
2023-02-21T10:18:01.209Z,94582.38
2023-02-21T10:20:49.622Z,94592.84
2023-02-21T10:23:22.442Z,94587.88
2023-02-21T10:25:51.857Z,94580.22
2023-02-21T10:28:24.936Z,94583.53
2023-02-21T10:30:57.406Z,94591.72
2023-02-21T10:33:24.296Z,94592.47
2023-02-21T10:35:51.002Z,94591.78
2023-02-21T10:38:23.764Z,94585.28
2023-02-21T10:40:55.848Z,94594.75
2023-02-21T10:43:35.740Z,94594.94
2023-02-21T10:46:15.575Z,94595.69
2023-02-21T10:48:44.391Z,94592.72
2023-02-21T10:51:38.548Z,94591.84
2023-02-21T10:54:24.185Z,94589.81
2023-02-21T10:56:53.238Z,94581.50
2023-02-21T10:59:26.920Z,94587.66
2023-02-21T11:01:55.068Z,94580.38
2023-02-21T11:04:21.664Z,94579.69
2023-02-21T11:06:51.581Z,94574.69
2023-02-21T11:09:30.512Z,94570.44
2023-02-21T11:12:20.504Z,94567.91
2023-02-21T11:14:53.304Z,94574.69
2023-02-21T11:17:24.621Z,94564.41
2023-02-21T11:19:55.217Z,94556.00
2023-02-21T11:22:34.951Z,94556.75
2023-02-21T11:25:20.513Z,94551.09
2023-02-21T11:28:01.300Z,94546.66
2023-02-21T11:30:28.853Z,94536.03
2023-02-21T11:32:57.974Z,94540.81
2023-02-21T11:35:27.228Z,94543.72
2023-02-21T11:38:00.048Z,94531.53
2023-02-21T11:40:50.568Z,94526.81
2023-02-21T11:43:31.084Z,94532.28
2023-02-21T11:46:13.842Z,94534.31
2023-02-21T11:48:59.326Z,94527.00
2023-02-21T11:51:51.078Z,94514.34
2023-02-21T11:54:22.020Z,94512.25
2023-02-21T11:56:54.505Z,94503.69
2023-02-21T11:59:37.758Z,94508.25
2023-02-21T12:02:19.647Z,94497.44
2023-02-21T12:05:28.440Z,94497.19
2023-02-21T12:08:40.404Z,94488.69
2023-02-21T12:11:25.883Z,94487.78
2023-02-21T12:14:04.719Z,94484.50
2023-02-21T12:16:43.605Z,94482.50
2023-02-21T12:19:51.966Z,94470.97
2023-02-21T12:22:57.678Z,94467.63
2023-02-21T12:25:53.736Z,94461.81
2023-02-21T12:28:43.951Z,94453.66
2023-02-21T12:31:22.744Z,94442.41
2023-02-21T12:34:00.879Z,94439.56
2023-02-21T12:36:36.678Z,94433.25
2023-02-21T12:39:14.983Z,94430.94
2023-02-21T12:42:18.207Z,94425.97
2023-02-21T12:45:11.007Z,94428.31
2023-02-21T12:47:56.038Z,94419.09
2023-02-21T12:50:27.440Z,94417.50
2023-02-21T12:53:04.627Z,94415.59
2023-02-21T12:55:37.280Z,94417.41
2023-02-21T12:58:21.058Z,94411.72
2023-02-21T13:00:50.521Z,94407.88
2023-02-21T13:03:34.278Z,94407.28
2023-02-21T13:06:23.580Z,94396.34
2023-02-21T13:08:59.145Z,94393.34
2023-02-21T13:11:33.745Z,94385.53
2023-02-21T13:14:01.349Z,94381.63
2023-02-21T13:16:28.355Z,94378.59
2023-02-21T13:19:06.664Z,94378.41
2023-02-21T13:21:55.341Z,94372.25
2023-02-21T13:24:48.622Z,94372.66
2023-02-21T13:27:37.434Z,94364.88
2023-02-21T13:30:28.974Z,94364.50
2023-02-21T13:32:59.515Z,94354.44
2023-02-21T13:35:47.165Z,94358.19
2023-02-21T13:38:13.855Z,94358.28
2023-02-21T13:41:03.712Z,94348.38
2023-02-21T13:43:33.173Z,94338.06
2023-02-21T13:46:31.094Z,94341.00
2023-02-21T13:49:35.641Z,94341.16
2023-02-21T13:52:23.515Z,94331.38
2023-02-21T13:55:15.285Z,94325.50
2023-02-21T13:57:49.503Z,94318.66
2023-02-21T14:00:25.328Z,94321.63
2023-02-21T14:03:12.673Z,94315.88
2023-02-21T14:05:45.511Z,94311.03
2023-02-21T14:08:34.864Z,94312.88
2023-02-21T14:11:04.694Z,94301.44
2023-02-21T14:13:55.199Z,94305.84
2023-02-21T14:16:46.524Z,94289.56
2023-02-21T14:19:23.995Z,94294.09
2023-02-21T14:22:03.399Z,94282.25
2023-02-21T14:24:38.143Z,94289.03
2023-02-21T14:27:31.182Z,94292.34
2023-02-21T14:30:00.847Z,94294.34
2023-02-21T14:32:35.077Z,94292.13
2023-02-21T14:35:15.027Z,94283.94
2023-02-21T14:37:53.367Z,94283.34
2023-02-21T14:40:35.177Z,94281.56
2023-02-21T14:43:42.487Z,94281.22
2023-02-21T14:46:40.983Z,94274.44
2023-02-21T14:49:51.741Z,94273.59
2023-02-21T14:52:39.886Z,94268.59
2023-02-21T14:55:28.107Z,94270.63
2023-02-21T14:58:12.955Z,94272.50
2023-02-21T15:01:00.553Z,94270.50
2023-02-21T15:03:46.437Z,94267.44
2023-02-21T15:06:21.040Z,94266.41
2023-02-21T15:08:49.910Z,94267.38
2023-02-21T15:11:26.642Z,94272.78
2023-02-21T15:14:14.670Z,94261.38
2023-02-21T15:16:46.559Z,94264.38
2023-02-21T15:19:26.315Z,94263.97
2023-02-21T15:22:16.391Z,94260.03
2023-02-21T15:25:09.765Z,94265.66
2023-02-21T15:27:50.659Z,94259.91
2023-02-21T15:30:19.133Z,94262.97
2023-02-21T15:32:56.926Z,94267.16
2023-02-21T15:35:27.511Z,94258.88
2023-02-21T15:37:56.738Z,94261.19
2023-02-21T15:40:25.785Z,94254.56
2023-02-21T15:42:55.359Z,94256.09
2023-02-21T15:45:37.595Z,94253.91
2023-02-21T15:48:04.479Z,94252.78
2023-02-21T15:50:46.792Z,94243.78
2023-02-21T15:53:22.764Z,94232.75
2023-02-21T15:55:51.229Z,94243.03
2023-02-21T15:58:28.258Z,94237.34
2023-02-21T16:01:07.265Z,94235.78
2023-02-21T16:03:42.171Z,94233.31
2023-02-21T16:06:23.654Z,94241.63
2023-02-21T16:09:03.667Z,94230.19
2023-02-21T16:11:55.488Z,94229.59
2023-02-21T16:14:22.069Z,94229.44
2023-02-21T16:16:53.976Z,94223.84
2023-02-21T16:19:23.309Z,94215.94
2023-02-21T16:21:51.184Z,94225.50
2023-02-21T16:24:30.668Z,94214.94
2023-02-21T16:27:04.055Z,94220.59
2023-02-21T16:29:30.770Z,94220.00
2023-02-21T16:31:57.609Z,94221.75
2023-02-21T16:34:25.021Z,94221.75
2023-02-21T16:36:54.863Z,94221.25
2023-02-21T16:39:21.596Z,94226.44
2023-02-21T16:41:48.245Z,94229.69
2023-02-21T16:44:14.893Z,94224.44
2023-02-21T16:46:41.825Z,94228.09
2023-02-21T16:49:10.816Z,94231.06
2023-02-21T16:51:41.201Z,94219.84
2023-02-21T16:54:09.562Z,94213.03
2023-02-21T16:56:39.950Z,94224.50
2023-02-21T16:59:12.201Z,94222.34
2023-02-21T17:01:40.518Z,94227.09
2023-02-21T17:04:27.099Z,94230.97
2023-02-21T17:06:59.064Z,94228.09
2023-02-21T17:09:28.372Z,94228.00
2023-02-21T17:11:55.466Z,94231.28
2023-02-21T17:14:22.643Z,94226.81
2023-02-21T17:16:49.360Z,94220.38
2023-02-21T17:19:18.061Z,94217.72
2023-02-21T17:21:45.257Z,94229.03
2023-02-21T17:24:13.706Z,94232.88
2023-02-21T17:26:41.128Z,94238.38
2023-02-21T17:29:09.254Z,94236.47
2023-02-21T17:31:36.304Z,94225.19
2023-02-21T17:34:04.100Z,94232.81
2023-02-21T17:36:31.185Z,94225.75
2023-02-21T17:38:58.961Z,94225.75
2023-02-21T17:41:26.933Z,94228.09
2023-02-21T17:43:53.602Z,94231.00
2023-02-21T17:46:21.312Z,94221.97
2023-02-21T17:48:48.106Z,94229.66
2023-02-21T17:51:23.819Z,94226.19
2023-02-21T17:53:51.848Z,94232.69
2023-02-21T17:56:20.820Z,94236.19
2023-02-21T17:58:48.033Z,94241.44
2023-02-21T18:01:16.627Z,94241.78
2023-02-21T18:03:43.466Z,94245.91
2023-02-21T18:06:10.137Z,94225.22
2023-02-21T18:08:36.767Z,94237.75
2023-02-21T18:11:03.514Z,94233.91
2023-02-21T18:13:30.339Z,94241.38
2023-02-21T18:15:57.051Z,94225.34
2023-02-21T18:18:23.741Z,94231.63
2023-02-21T18:20:50.399Z,94227.66
2023-02-21T18:23:17.224Z,94231.06
2023-02-21T18:25:44.515Z,94236.22
2023-02-21T18:28:11.167Z,94227.81
2023-02-21T18:30:37.916Z,94233.03
2023-02-21T18:33:04.607Z,94231.78
2023-02-21T18:35:31.527Z,94235.19
2023-02-21T18:37:58.543Z,94227.50
2023-02-21T18:40:34.375Z,94227.22
2023-02-21T18:43:02.395Z,94224.94
2023-02-21T18:45:29.145Z,94221.97
2023-02-21T18:47:55.775Z,94224.19
2023-02-21T18:50:22.481Z,94230.84
2023-02-21T18:52:49.229Z,94221.47
2023-02-21T18:55:17.572Z,94227.00
2023-02-21T18:57:44.275Z,94227.81
2023-02-21T19:00:14.514Z,94226.56
2023-02-21T19:02:41.124Z,94225.00
2023-02-21T19:05:08.477Z,94226.09
2023-02-21T19:07:36.482Z,94205.06
2023-02-21T19:10:03.553Z,94199.44
2023-02-21T19:12:30.160Z,94223.13
2023-02-21T19:14:56.901Z,94213.44
2023-02-21T19:17:24.089Z,94222.25
2023-02-21T19:19:50.736Z,94224.94
2023-02-21T19:22:17.458Z,94214.72
2023-02-21T19:24:44.222Z,94233.94
2023-02-21T19:27:10.989Z,94221.50
2023-02-21T19:29:37.793Z,94218.38
2023-02-21T19:32:04.718Z,94225.75
2023-02-21T19:34:31.462Z,94225.13
2023-02-21T19:36:58.138Z,94219.28
2023-02-21T19:39:24.777Z,94234.53
2023-02-21T19:41:51.513Z,94232.03
2023-02-21T19:44:18.350Z,94213.50
2023-02-21T19:46:45.442Z,94235.38
2023-02-21T19:49:20.706Z,94240.09
2023-02-21T19:51:53.544Z,94232.53
2023-02-21T19:54:22.934Z,94237.41
2023-02-21T19:56:50.089Z,94229.56
2023-02-21T19:59:17.487Z,94229.72
2023-02-21T20:01:44.234Z,94231.44
2023-02-21T20:04:11.292Z,94236.31
2023-02-21T20:06:38.006Z,94231.75
2023-02-21T20:09:10.079Z,94232.53
2023-02-21T20:11:40.143Z,94232.25
2023-02-21T20:14:11.565Z,94232.72
2023-02-21T20:16:42.743Z,94236.78
2023-02-21T20:19:10.865Z,94239.31
2023-02-21T20:21:39.058Z,94229.09
2023-02-21T20:24:07.321Z,94232.38
2023-02-21T20:26:34.120Z,94220.31
2023-02-21T20:29:00.759Z,94234.28
2023-02-21T20:31:29.968Z,94232.38
2023-02-21T20:33:57.196Z,94242.91
2023-02-21T20:36:33.146Z,94234.88
2023-02-21T20:39:00.336Z,94226.53
2023-02-21T20:41:36.982Z,94233.59
2023-02-21T20:44:03.625Z,94230.28
2023-02-21T20:46:30.376Z,94237.19
2023-02-21T20:48:58.917Z,94218.00
2023-02-21T20:51:35.265Z,94236.06
2023-02-21T20:54:02.166Z,94231.16
2023-02-21T20:56:34.029Z,94235.34
2023-02-21T20:59:01.821Z,94232.50
2023-02-21T21:01:28.570Z,94229.72
2023-02-21T21:03:57.099Z,94222.50
2023-02-21T21:06:24.245Z,94224.69
2023-02-21T21:08:50.916Z,94235.97
2023-02-21T21:11:17.888Z,94231.72
2023-02-21T21:13:47.808Z,94218.81
2023-02-21T21:16:15.672Z,94224.31
2023-02-21T21:18:43.250Z,94229.97
2023-02-21T21:21:10.838Z,94226.03
2023-02-21T21:23:37.543Z,94226.75
2023-02-21T21:26:08.679Z,94222.00
2023-02-21T21:28:36.065Z,94229.22
2023-02-21T21:31:03.578Z,94219.97
2023-02-21T21:33:30.267Z,94233.28
2023-02-21T21:35:59.570Z,94216.78
2023-02-21T21:38:27.264Z,94220.53
2023-02-21T21:40:57.474Z,94218.97
2023-02-21T21:43:25.047Z,94207.63
2023-02-21T21:45:51.845Z,94214.25
2023-02-21T21:48:19.692Z,94199.88
2023-02-21T21:50:46.524Z,94202.44
2023-02-21T21:53:14.073Z,94212.19
2023-02-21T21:55:40.785Z,94205.59
2023-02-21T21:58:13.880Z,94216.25
2023-02-21T22:00:46.268Z,94212.13
2023-02-21T22:03:18.295Z,94208.84
2023-02-21T22:05:45.949Z,94205.69
2023-02-21T22:08:22.476Z,94204.88
2023-02-21T22:10:49.243Z,94204.88
2023-02-21T22:13:20.740Z,94211.13
2023-02-21T22:15:47.886Z,94208.75
2023-02-21T22:18:19.485Z,94207.19
2023-02-21T22:20:50.288Z,94199.31
2023-02-21T22:23:21.231Z,94194.88
2023-02-21T22:25:48.444Z,94201.28
2023-02-21T22:28:15.192Z,94203.16
2023-02-21T22:30:42.203Z,94197.22
2023-02-21T22:33:13.499Z,94196.56
2023-02-21T22:35:41.537Z,94197.09
2023-02-21T22:38:14.430Z,94194.44
2023-02-21T22:40:42.458Z,94191.59
2023-02-21T22:43:10.382Z,94185.31
2023-02-21T22:45:38.302Z,94184.69
2023-02-21T22:48:07.713Z,94180.47
2023-02-21T22:50:37.109Z,94174.97
2023-02-21T22:53:09.377Z,94162.88
2023-02-21T22:55:37.411Z,94173.09
2023-02-21T22:58:07.666Z,94176.06
2023-02-21T23:00:35.868Z,94178.22
2023-02-21T23:03:14.603Z,94174.59
2023-02-21T23:05:51.659Z,94174.09
2023-02-21T23:08:20.704Z,94164.50
2023-02-21T23:10:48.508Z,94169.50
2023-02-21T23:13:21.026Z,94159.00
2023-02-21T23:15:48.191Z,94168.25
2023-02-21T23:18:23.334Z,94161.34
2023-02-21T23:20:52.984Z,94165.28
2023-02-21T23:23:27.346Z,94158.06
2023-02-21T23:25:59.106Z,94163.28
2023-02-21T23:28:28.801Z,94155.09
2023-02-21T23:30:56.197Z,94164.97
2023-02-21T23:33:26.276Z,94162.75
2023-02-21T23:35:55.476Z,94155.66
2023-02-21T23:38:24.695Z,94159.22
2023-02-21T23:40:56.381Z,94162.47
2023-02-21T23:43:29.565Z,94155.41
2023-02-21T23:45:58.420Z,94152.19
2023-02-21T23:48:25.188Z,94153.38
2023-02-21T23:50:56.805Z,94164.19
2023-02-21T23:53:26.439Z,94161.25
2023-02-21T23:56:00.428Z,94157.19
2023-02-21T23:58:31.511Z,94150.91
